Date,TemperatureHighF,TemperatureAvgF,TemperatureLowF,DewpointHighF,DewpointAvgF,DewpointLowF,HumidityHigh,HumidityAvg,HumidityLow,PressureMaxIn,PressureMinIn,WindSpeedMaxMPH,WindSpeedAvgMPH,GustSpeedMaxMPH,PrecipitationSumIn
2013-10-1,74.6,60.7,48.5,53.1,50.0,45.4,91,70,43,30.00,29.89,9,0,9,0.01
2013-10-2,77.8,59.9,46.5,52.9,47.7,43.1,93,68,38,29.99,29.90,12,0,12,0.00
2013-10-3,72.4,60.0,42.5,45.1,36.9,30.0,89,49,23,30.05,29.93,18,1,18,0.00
2013-10-4,77.8,67.7,54.8,36.2,32.4,29.5,46,27,19,30.09,29.95,19,2,19,0.00
2013-10-5,81.3,65.8,47.6,41.2,34.2,26.1,63,34,18,30.19,30.09,11,1,11,0.00
2013-10-6,82.0,61.7,43.3,45.1,39.2,35.5,76,47,23,30.12,29.98,6,0,6,0.00
2013-10-7,85.2,64.4,47.1,46.0,38.3,30.6,72,44,17,29.99,29.84,9,0,9,0.00
2013-10-8,76.8,60.1,46.0,47.7,43.5,39.5,84,58,29,29.89,29.69,7,0,11,0.00
2013-10-9,68.8,56.8,47.6,48.3,44.5,40.6,88,66,38,29.74,29.61,12,0,12,0.00
2013-10-10,74.3,57.4,45.3,47.7,42.7,39.9,84,62,30,29.99,29.74,10,0,10,0.00
2013-10-11,71.7,55.7,43.2,52.4,45.9,40.8,94,72,45,30.06,29.94,8,0,8,0.00
2013-10-12,74.7,55.4,42.0,50.2,44.1,39.2,93,69,37,29.99,29.87,7,0,12,0.00
2013-10-13,72.1,56.0,42.2,50.6,42.5,39.1,94,65,31,30.05,29.91,9,0,9,0.00
2013-10-14,75.2,57.3,41.5,46.7,39.7,36.6,88,57,26,30.11,29.98,14,0,14,0.00
2013-10-15,77.7,60.4,42.4,39.9,36.6,33.1,84,47,22,30.04,29.93,16,1,16,0.00
2013-10-16,78.9,59.7,42.9,42.7,38.2,35.4,79,49,24,30.08,29.98,4,0,9,0.00
2013-10-17,79.9,59.7,43.1,43.4,38.1,34.5,80,49,21,30.07,29.93,7,0,7,0.00
2013-10-18,79.6,60.2,43.6,42.6,38.8,34.4,74,49,25,30.03,29.95,9,0,9,0.00
2013-10-19,80.7,60.2,42.9,46.2,42.0,37.8,86,55,26,30.06,29.96,8,0,8,0.00
2013-10-20,82.3,60.4,42.7,48.8,43.0,38.3,86,57,23,30.01,29.87,6,0,6,0.00
2013-10-21,76.8,59.1,44.8,50.8,46.5,41.8,91,66,35,29.98,29.88,6,0,6,0.00
2013-10-22,78.7,58.7,43.1,52.1,46.7,40.6,93,68,35,30.00,29.88,7,0,7,0.00
2013-10-23,78.2,57.4,44.2,52.5,46.9,41.5,93,72,33,29.95,29.84,10,0,10,0.00
2013-10-24,62.5,52.4,44.7,50.2,46.1,42.0,94,81,60,30.08,29.94,11,0,11,0.00
2013-10-25,71.7,54.5,41.1,51.1,45.5,39.2,95,75,44,30.16,30.05,10,0,10,0.00
2013-10-26,77.1,57.7,43.2,50.7,44.9,40.5,93,66,34,30.13,29.99,7,0,7,0.01
2013-10-27,61.6,52.2,44.4,50.4,45.7,41.1,92,79,64,30.00,29.62,28,2,28,0.00
2013-10-28,61.2,51.9,41.2,48.0,44.5,38.2,93,77,56,29.83,29.66,15,1,15,0.00
2013-10-29,61.6,54.3,43.5,48.2,45.6,40.1,88,73,54,30.04,29.83,11,0,11,0.00
2013-10-30,65.0,50.8,39.2,48.1,42.5,37.1,94,75,46,30.14,30.03,7,0,7,0.00
2013-10-31,71.2,53.6,39.4,46.7,41.9,37.0,93,68,36,30.17,30.05,9,0,9,0.00